Sonoma, California
Current Conditions -  °F | °C
As of 2:55 PM on Tuesday 25 Nov 2014 (Local Time) from KO69 Reporting Station
Clear Clear  
Wind Chill: 64°   Ceiling: Unl
Heat Index: 64°   Visibility: 10mi
Dew Point: 46°   Wind: 10mph
Humidity: 52%   Direction: 160°SSE
Pressure: 30.4"   Gusts: NA
Location:  38.29°N, 122.45°W
Report Text: KO69 252255Z AUTO 16009KT 10SM CLR 18/08 A3040 RMK AO1
Loading
Personal Weather Stations






























Interactive Weather Map New forecast layout! Learn more

10-Day Weather Forecast

Advertisements
Track Severe Weather on mobile